Time;durP1;ratioP1;P1;durP2;ratioP2;P2;SDS_P1;SDS_P2;PMS_P1;PMS_P2;Temp;Humidity;BMP_temperature;BMP_pressure;BME280_temperature;BME280_humidity;BME280_pressure;Samples;Min_cycle;Max_cycle;Signal;HPM_P1;HPM_P2
2021/07/01 00:00:00;;;;;;;14.40;9.90;;;;;;;17.93;78.51;100364.09;699346;28;21535;-61
2021/07/01 00:00:21;;;;;;;14.85;10.13;;;;;;;17.94;78.40;100363.03;698032;28;47217;-62
2021/07/01 00:00:42;;;;;;;14.15;9.57;;;;;;;17.94;78.49;100369.31;698720;28;40317;-62
2021/07/01 00:01:04;;;;;;;13.32;9.82;;;;;;;17.94;78.49;100368.50;698753;28;22790;-62
2021/07/01 00:01:25;;;;;;;13.32;9.60;;;;;;;17.95;78.51;100365.53;699534;28;18360;-62
2021/07/01 00:01:50;;;;;;;13.82;9.75;;;;;;;17.95;78.43;100361.97;698913;28;22290;-61
2021/07/01 00:02:11;;;;;;;13.70;9.63;;;;;;;17.94;78.45;100368.50;695307;28;138801;-62
2021/07/01 00:02:32;;;;;;;14.95;9.38;;;;;;;17.95;78.26;100361.97;697705;28;44394;-62
2021/07/01 00:02:53;;;;;;;14.20;9.27;;;;;;;17.94;78.34;100369.31;698164;28;22528;-62
2021/07/01 00:03:15;;;;;;;13.55;9.63;;;;;;;17.94;78.59;100365.78;699009;28;23502;-62
2021/07/01 00:03:37;;;;;;;14.43;10.00;;;;;;;17.94;78.30;100369.31;698842;28;23479;-62
2021/07/01 00:03:58;;;;;;;15.10;9.73;;;;;;;17.94;78.22;100363.03;697925;28;45243;-62
2021/07/01 00:04:19;;;;;;;14.82;9.90;;;;;;;17.95;78.32;100367.44;698568;28;23320;-62
2021/07/01 00:04:40;;;;;;;14.55;10.27;;;;;;;17.94;78.36;100365.78;698813;28;20765;-62
2021/07/01 00:05:03;;;;;;;14.88;10.00;;;;;;;17.93;78.26;100367.69;698824;28;23475;-62
2021/07/01 00:05:24;;;;;;;15.07;9.95;;;;;;;17.93;78.32;100362.22;697617;28;63808;-62
2021/07/01 00:05:45;;;;;;;16.17;10.10;;;;;;;17.93;78.12;100356.75;698736;28;19665;-62
2021/07/01 00:06:10;;;;;;;13.82;9.63;;;;;;;17.93;78.27;100358.63;698314;28;37822;-62
2021/07/01 00:06:31;;;;;;;15.10;10.07;;;;;;;17.92;78.07;100363.28;699190;28;14532;-63
2021/07/01 00:06:53;;;;;;;13.60;10.07;;;;;;;17.92;78.16;100362.44;698729;28;16192;-62
2021/07/01 00:07:17;;;;;;;14.30;10.13;;;;;;;17.91;78.19;100369.78;698695;28;37282;-62
2021/07/01 00:07:39;;;;;;;14.48;10.48;;;;;;;17.91;78.02;100363.50;698959;28;23392;-62
2021/07/01 00:08:00;;;;;;;15.38;10.48;;;;;;;17.90;78.33;100361.84;699252;28;24721;-62
2021/07/01 00:08:22;;;;;;;16.17;10.10;;;;;;;17.88;78.17;100356.59;699993;28;913;-62
2021/07/01 00:08:46;;;;;;;15.33;10.33;;;;;;;17.88;78.31;100359.34;700087;28;899;-62
2021/07/01 00:09:13;;;;;;;13.30;9.98;;;;;;;17.88;78.32;100359.34;696346;28;93267;-62
2021/07/01 00:09:34;;;;;;;14.18;9.75;;;;;;;17.88;78.35;100358.47;694066;28;144680;-62
2021/07/01 00:09:56;;;;;;;14.18;9.88;;;;;;;17.87;78.17;100352.19;699402;28;22397;-62
2021/07/01 00:10:21;;;;;;;15.55;10.20;;;;;;;17.86;78.26;100360.63;698271;28;44399;-62
2021/07/01 00:10:42;;;;;;;16.73;10.50;;;;;;;17.87;78.30;100354.94;696001;28;115004;-61
2021/07/01 00:11:03;;;;;;;16.30;10.38;;;;;;;17.87;78.28;100354.06;699211;28;24047;-62
2021/07/01 00:11:30;;;;;;;13.10;9.95;;;;;;;17.86;78.29;100346.97;697984;28;61807;-62
2021/07/01 00:11:55;;;;;;;14.52;10.13;;;;;;;17.86;78.34;100357.91;696863;28;69546;-62
2021/07/01 00:12:16;;;;;;;14.18;10.43;;;;;;;17.84;78.26;100350.75;696654;28;90000;-62
2021/07/01 00:12:38;;;;;;;16.35;10.73;;;;;;;17.83;78.33;100351.00;700264;28;2824;-62
2021/07/01 00:12:59;;;;;;;16.77;10.40;;;;;;;17.83;78.39;100354.53;699501;28;18289;-62
2021/07/01 00:13:21;;;;;;;15.10;10.05;;;;;;;17.84;78.30;100352.66;699320;28;22532;-61
2021/07/01 00:13:42;;;;;;;13.52;9.98;;;;;;;17.82;78.38;100347.44;698503;28;46286;-62
2021/07/01 00:14:03;;;;;;;13.43;9.93;;;;;;;17.82;78.37;100350.16;697707;28;46073;-62
2021/07/01 00:14:24;;;;;;;16.08;10.40;;;;;;;17.81;78.33;100353.97;699518;28;22493;-62
2021/07/01 00:14:45;;;;;;;15.43;10.20;;;;;;;17.80;78.39;100346.81;699290;28;22404;-62
2021/07/01 00:15:09;;;;;;;14.75;10.07;;;;;;;17.80;78.44;100343.25;698993;28;20635;-62
2021/07/01 00:15:33;;;;;;;14.23;10.27;;;;;;;17.81;78.50;100350.41;697166;28;92976;-62
2021/07/01 00:15:55;;;;;;;15.07;9.95;;;;;;;17.81;78.62;100347.66;696378;28;81671;-62
2021/07/01 00:16:16;;;;;;;16.95;10.10;;;;;;;17.81;78.55;100353.97;700111;28;906;-62
2021/07/01 00:16:38;;;;;;;17.60;10.27;;;;;;;17.81;78.46;100347.66;698976;28;23524;-62
2021/07/01 00:16:59;;;;;;;13.73;10.13;;;;;;;17.80;78.44;100338.63;699138;28;5778;-62
2021/07/01 00:17:20;;;;;;;14.27;10.52;;;;;;;17.77;78.47;100339.13;699717;28;1281;-62
2021/07/01 00:17:42;;;;;;;15.90;10.50;;;;;;;17.79;78.43;100352.50;699376;28;23415;-62
2021/07/01 00:18:05;;;;;;;12.85;10.05;;;;;;;17.80;78.46;100349.53;699262;28;21356;-62
2021/07/01 00:18:26;;;;;;;14.43;9.88;;;;;;;17.80;78.52;100346.81;697136;28;69445;-62
2021/07/01 00:18:48;;;;;;;15.23;10.30;;;;;;;17.81;78.61;100342.22;698851;28;21550;-62
2021/07/01 00:19:09;;;;;;;17.23;10.48;;;;;;;17.79;78.39;100336.13;698554;28;45313;-62
2021/07/01 00:19:31;;;;;;;18.00;10.52;;;;;;;17.78;78.48;100339.94;698286;28;22401;-61
2021/07/01 00:19:52;;;;;;;13.77;9.95;;;;;;;17.77;78.50;100336.38;699091;28;29629;-63
2021/07/01 00:20:14;;;;;;;16.00;10.48;;;;;;;17.79;78.47;100349.78;698415;28;21519;-62
2021/07/01 00:20:36;;;;;;;16.25;10.30;;;;;;;17.76;78.44;100342.91;698697;28;37570;-62
2021/07/01 00:20:57;;;;;;;15.00;10.40;;;;;;;17.75;78.58;100338.50;698148;28;47197;-62
2021/07/01 00:21:20;;;;;;;13.18;10.10;;;;;;;17.77;78.52;100341.84;699866;28;15361;-62
2021/07/01 00:21:42;;;;;;;15.63;10.48;;;;;;;17.76;78.70;100337.44;699898;28;1559;-62
2021/07/01 00:22:06;;;;;;;14.13;10.57;;;;;;;17.76;78.74;100336.63;699622;28;1417;-62
2021/07/01 00:22:28;;;;;;;14.48;10.07;;;;;;;17.76;78.64;100342.91;699804;28;1026;-62
2021/07/01 00:22:51;;;;;;;13.50;10.30;;;;;;;17.76;78.71;100337.44;698170;28;45100;-62
2021/07/01 00:23:12;;;;;;;17.77;10.70;;;;;;;17.77;78.86;100335.53;697555;28;69403;-62
2021/07/01 00:23:33;;;;;;;14.73;10.10;;;;;;;17.76;78.69;100331.97;698855;28;24291;-62
2021/07/01 00:23:55;;;;;;;16.63;9.93;;;;;;;17.79;78.68;100336.13;699935;28;5141;-62
2021/07/01 00:24:16;;;;;;;17.40;10.35;;;;;;;17.78;78.78;100340.75;698151;28;44679;-62
2021/07/01 00:24:38;;;;;;;17.50;10.32;;;;;;;17.77;78.65;100336.38;699012;28;22192;-62
2021/07/01 00:24:59;;;;;;;15.98;10.68;;;;;;;17.79;78.72;100331.50;697774;28;46282;-61
2021/07/01 00:25:21;;;;;;;14.23;10.05;;;;;;;17.79;78.66;100334.25;699364;28;10382;-62
2021/07/01 00:25:43;;;;;;;16.43;10.20;;;;;;;17.79;78.58;100328.78;698532;28;46367;-62
2021/07/01 00:26:05;;;;;;;15.17;10.17;;;;;;;17.79;78.54;100336.13;697382;28;69381;-62
2021/07/01 00:26:26;;;;;;;13.70;10.45;;;;;;;17.79;78.64;100336.13;698135;28;37720;-62
2021/07/01 00:26:47;;;;;;;16.35;9.95;;;;;;;17.80;78.65;100326.88;698121;28;46523;-62
2021/07/01 00:27:08;;;;;;;17.23;9.85;;;;;;;17.80;78.62;100332.34;699302;28;23418;-62
2021/07/01 00:27:30;;;;;;;13.85;9.95;;;;;;;17.81;78.58;100336.75;698353;28;23736;-62
2021/07/01 00:27:52;;;;;;;15.00;10.35;;;;;;;17.80;78.47;100340.53;698397;28;47447;-62
2021/07/01 00:28:13;;;;;;;17.40;10.03;;;;;;;17.81;78.55;100342.22;697732;28;46234;-62
2021/07/01 00:28:34;;;;;;;15.03;9.97;;;;;;;17.80;78.48;100337.81;695963;28;45267;-62
2021/07/01 00:28:55;;;;;;;14.93;9.80;;;;;;;17.79;78.44;100336.97;696622;28;45311;-62
2021/07/01 00:29:17;;;;;;;14.47;9.83;;;;;;;17.80;78.25;100341.34;696796;28;46363;-62
2021/07/01 00:29:38;;;;;;;14.82;9.80;;;;;;;17.79;78.32;100334.25;696592;28;70410;-62
2021/07/01 00:29:59;;;;;;;15.40;10.27;;;;;;;17.80;78.27;100340.53;698243;28;46332;-62
2021/07/01 00:30:22;;;;;;;13.60;10.07;;;;;;;17.80;78.50;100340.53;696937;28;1784;-62
2021/07/01 00:30:44;;;;;;;12.60;9.82;;;;;;;17.79;78.31;100334.25;698151;28;46356;-62
2021/07/01 00:31:05;;;;;;;15.45;10.30;;;;;;;17.79;78.30;100341.59;698543;28;45293;-62
2021/07/01 00:31:26;;;;;;;16.20;10.52;;;;;;;17.75;78.23;100333.03;695930;28;21567;-62
2021/07/01 00:31:47;;;;;;;14.65;9.93;;;;;;;17.77;78.37;100330.94;695516;28;23397;-62
2021/07/01 00:32:08;;;;;;;16.17;9.98;;;;;;;17.77;78.29;100341.84;696499;28;23463;-62
2021/07/01 00:32:30;;;;;;;15.73;10.20;;;;;;;17.76;78.40;100333.88;698910;28;22631;-62
2021/07/01 00:32:51;;;;;;;17.10;10.40;;;;;;;17.76;78.32;100337.44;698362;28;45191;-62
2021/07/01 00:33:12;;;;;;;18.05;10.30;;;;;;;17.75;78.35;100333.03;699341;28;14077;-62
2021/07/01 00:33:34;;;;;;;17.88;10.30;;;;;;;17.75;78.39;100335.78;699127;28;23414;-62
2021/07/01 00:33:55;;;;;;;16.40;10.40;;;;;;;17.76;78.42;100334.72;697577;28;45309;-62
2021/07/01 00:34:16;;;;;;;15.00;9.82;;;;;;;17.77;78.48;100338.28;698885;28;21519;-62
2021/07/01 00:34:37;;;;;;;15.57;10.07;;;;;;;17.78;78.39;100342.69;699311;28;9365;-62
2021/07/01 00:34:59;;;;;;;16.52;10.18;;;;;;;17.75;78.38;100327.56;698803;28;22395;-62
2021/07/01 00:35:21;;;;;;;17.83;10.63;;;;;;;17.75;78.44;100334.94;697663;28;44381;-62
2021/07/01 00:35:42;;;;;;;17.33;10.93;;;;;;;17.75;78.32;100338.50;699476;28;22735;-63
2021/07/01 00:36:03;;;;;;;15.65;10.57;;;;;;;17.75;78.33;100334.94;698463;28;46290;-62
2021/07/01 00:36:24;;;;;;;17.95;10.68;;;;;;;17.75;78.53;100335.78;699396;28;23412;-62
2021/07/01 00:36:46;;;;;;;15.23;10.25;;;;;;;17.74;78.34;100331.41;699028;28;20197;-62
2021/07/01 00:37:07;;;;;;;15.68;10.63;;;;;;;17.77;78.36;100333.66;697852;28;46356;-62
2021/07/01 00:37:29;;;;;;;16.95;10.43;;;;;;;17.76;78.49;100339.34;698284;28;24351;-62
2021/07/01 00:37:51;;;;;;;16.27;10.30;;;;;;;17.77;78.45;100328.19;697904;28;44362;-62
2021/07/01 00:38:13;;;;;;;14.98;10.57;;;;;;;17.78;78.55;100339.94;699378;28;23706;-62
2021/07/01 00:38:34;;;;;;;15.45;10.77;;;;;;;17.77;78.47;100332.81;698175;28;46407;-62
2021/07/01 00:38:56;;;;;;;15.30;10.43;;;;;;;17.79;78.31;100330.66;699104;28;5563;-62
2021/07/01 00:39:17;;;;;;;16.80;10.93;;;;;;;17.77;78.31;100335.53;696688;28;67497;-61
2021/07/01 00:39:39;;;;;;;17.13;11.05;;;;;;;17.76;78.42;100334.72;698642;28;22401;-62
2021/07/01 00:40:02;;;;;;;16.33;10.80;;;;;;;17.76;78.45;100336.63;698392;28;44385;-62
2021/07/01 00:40:23;;;;;;;16.48;10.32;;;;;;;17.76;78.33;100337.44;697930;28;46335;-63
2021/07/01 00:40:44;;;;;;;15.35;10.20;;;;;;;17.78;78.30;100331.75;699020;28;22409;-61
2021/07/01 00:41:05;;;;;;;16.50;11.10;;;;;;;17.77;78.38;100330.06;701468;28;21568;-62
2021/07/01 00:41:27;;;;;;;17.00;10.68;;;;;;;17.75;78.39;100327.56;700769;28;23778;-62
2021/07/01 00:41:48;;;;;;;14.10;10.45;;;;;;;17.74;78.33;100325.94;700839;28;35252;-62
2021/07/01 00:42:09;;;;;;;14.88;10.68;;;;;;;17.76;78.31;100329.25;701663;28;21515;-62
2021/07/01 00:42:31;;;;;;;14.73;10.45;;;;;;;17.76;78.45;100328.44;695618;28;21510;-62
2021/07/01 00:42:53;;;;;;;14.98;10.80;;;;;;;17.75;78.45;100330.31;695616;28;35801;-62
2021/07/01 00:43:15;;;;;;;18.02;10.73;;;;;;;17.75;78.25;100330.31;696395;28;21545;-63
2021/07/01 00:43:36;;;;;;;17.63;10.90;;;;;;;17.75;78.65;100324.03;694834;28;46415;-63
2021/07/01 00:43:58;;;;;;;17.52;10.70;;;;;;;17.75;78.46;100326.75;692569;28;46149;-62
2021/07/01 00:44:19;;;;;;;16.05;11.00;;;;;;;17.74;78.20;100325.94;693995;28;23461;-62
2021/07/01 00:44:40;;;;;;;18.38;10.60;;;;;;;17.74;78.52;100319.63;699242;28;23419;-62
2021/07/01 00:45:02;;;;;;;17.92;10.70;;;;;;;17.75;78.52;100332.22;695580;28;21542;-63
2021/07/01 00:45:23;;;;;;;18.27;10.93;;;;;;;17.75;78.48;100326.75;695915;28;11153;-62
2021/07/01 00:45:44;;;;;;;16.17;11.00;;;;;;;17.75;78.32;100329.47;696519;28;21600;-62
2021/07/01 00:46:06;;;;;;;14.88;11.00;;;;;;;17.75;78.58;100324.03;696049;28;21291;-62
2021/07/01 00:46:29;;;;;;;16.10;11.05;;;;;;;17.74;78.38;100325.94;695614;28;46334;-62
2021/07/01 00:46:50;;;;;;;16.67;10.88;;;;;;;17.74;78.39;100325.06;697199;28;1488;-63
2021/07/01 00:47:11;;;;;;;17.90;11.10;;;;;;;17.74;78.47;100323.19;698795;28;23420;-63
2021/07/01 00:47:34;;;;;;;15.90;10.87;;;;;;;17.75;78.39;100324.84;695018;28;45234;-64
2021/07/01 00:47:55;;;;;;;16.13;11.02;;;;;;;17.76;78.34;100329.25;695507;28;66731;-62
2021/07/01 00:48:16;;;;;;;16.13;11.18;;;;;;;17.75;78.44;100327.56;699400;28;16239;-62
2021/07/01 00:48:38;;;;;;;17.00;10.93;;;;;;;17.75;78.33;100322.13;697165;28;44387;-63
2021/07/01 00:49:00;;;;;;;17.73;11.02;;;;;;;17.75;78.32;100326.75;698718;28;13539;-62
2021/07/01 00:49:22;;;;;;;18.55;11.50;;;;;;;17.75;78.16;100322.13;697625;28;44328;-63
2021/07/01 00:49:43;;;;;;;16.25;11.10;;;;;;;17.75;78.24;100329.47;697813;28;43755;-62
2021/07/01 00:50:07;;;;;;;17.00;11.30;;;;;;;17.75;78.22;100316.66;694962;28;23506;-61
2021/07/01 00:50:28;;;;;;;18.92;11.57;;;;;;;17.75;78.26;100324.84;691076;28;92292;-62
2021/07/01 00:50:53;;;;;;;16.60;11.65;;;;;;;17.74;78.32;100325.94;693298;28;22402;-63
2021/07/01 00:51:14;;;;;;;16.55;11.13;;;;;;;17.75;78.36;100321.28;690577;28;93011;-63
2021/07/01 00:51:35;;;;;;;16.45;10.65;;;;;;;17.76;78.39;100322.97;691854;28;22485;-63
2021/07/01 00:51:56;;;;;;;17.00;11.25;;;;;;;17.75;78.22;100322.13;692155;28;46327;-62
2021/07/01 00:52:18;;;;;;;15.65;11.73;;;;;;;17.76;78.24;100322.97;696599;28;18597;-62
2021/07/01 00:52:40;;;;;;;16.73;11.65;;;;;;;17.76;78.52;100328.44;699928;28;889;-62
2021/07/01 00:53:01;;;;;;;17.27;12.18;;;;;;;17.75;78.16;100326.75;695168;28;47297;-62
2021/07/01 00:53:22;;;;;;;16.42;11.27;;;;;;;17.75;78.20;100318.56;694865;28;22487;-62
2021/07/01 00:53:45;;;;;;;21.80;11.95;;;;;;;17.74;78.23;100317.75;693212;28;30135;-62
2021/07/01 00:54:08;;;;;;;19.17;11.90;;;;;;;17.75;78.19;100326.75;693289;28;44403;-61
2021/07/01 00:54:31;;;;;;;17.30;11.45;;;;;;;17.73;78.15;100327.00;696542;28;14885;-62
2021/07/01 00:54:52;;;;;;;17.42;11.88;;;;;;;17.71;78.04;100315.47;695419;28;45029;-61
2021/07/01 00:55:14;;;;;;;17.88;12.07;;;;;;;17.70;78.19;100319.25;695958;28;8152;-62
2021/07/01 00:55:39;;;;;;;17.77;12.10;;;;;;;17.70;78.19;100318.44;695328;28;62182;-63
2021/07/01 00:56:02;;;;;;;17.67;11.85;;;;;;;17.68;78.27;100318.69;696200;28;90754;-62
2021/07/01 00:56:24;;;;;;;18.55;11.90;;;;;;;17.69;78.25;100319.50;694568;28;64579;-62
2021/07/01 00:56:45;;;;;;;19.52;12.65;;;;;;;17.68;78.32;100320.56;696214;28;23436;-62
2021/07/01 00:57:07;;;;;;;19.33;12.60;;;;;;;17.67;78.35;100319.72;693578;28;23565;-62
2021/07/01 00:57:28;;;;;;;18.42;12.38;;;;;;;17.66;78.42;100315.31;691287;28;67571;-62
2021/07/01 00:57:50;;;;;;;15.93;11.97;;;;;;;17.64;78.42;100321.03;690356;28;46398;-63
2021/07/01 00:58:11;;;;;;;17.63;12.20;;;;;;;17.65;78.41;100319.16;686367;28;44378;-63
2021/07/01 00:58:33;;;;;;;17.95;12.05;;;;;;;17.65;78.45;100316.41;689834;28;1806;-62
2021/07/01 00:58:56;;;;;;;18.77;11.98;;;;;;;17.64;78.47;100325.66;688687;28;44093;-63
2021/07/01 00:59:18;;;;;;;18.27;11.55;;;;;;;17.64;78.52;100315.56;688133;28;92291;-62
2021/07/01 00:59:40;;;;;;;20.23;12.00;;;;;;;17.64;78.57;100322.94;693279;28;11631;-62
2021/07/01 01:00:06;;;;;;;18.83;12.25;;;;;;;17.62;78.52;100323.16;698111;28;1833;-62
2021/07/01 01:00:41;;;;;;;16.60;12.07;;;;;;;17.62;78.61;100323.16;698906;28;98861;-62
2021/07/01 01:01:12;;;;;;;17.40;12.00;;;;;;;17.62;78.57;100316.88;697546;28;98503;-62
2021/07/01 01:01:34;;;;;;;17.48;12.10;;;;;;;17.60;78.57;100319.84;699971;28;911;-62
2021/07/01 01:01:55;;;;;;;17.38;12.02;;;;;;;17.60;78.45;100319.84;694645;28;46419;-62
2021/07/01 01:02:17;;;;;;;18.92;11.68;;;;;;;17.61;78.59;100317.94;695851;28;22387;-63
2021/07/01 01:02:39;;;;;;;18.90;11.95;;;;;;;17.60;78.54;100330.78;694348;28;69597;-62
2021/07/01 01:03:04;;;;;;;17.88;12.07;;;;;;;17.61;78.41;100316.03;691220;28;92379;-62
2021/07/01 01:03:25;;;;;;;19.63;12.30;;;;;;;17.60;78.43;100319.84;693702;28;1672;-62
2021/07/01 01:03:47;;;;;;;19.98;12.40;;;;;;;17.60;78.35;100319.00;695001;28;19446;-62
2021/07/01 01:04:08;;;;;;;22.45;12.55;;;;;;;17.58;78.85;100313.75;694855;28;69635;-62
2021/07/01 01:04:32;;;;;;;17.13;11.70;;;;;;;17.57;78.69;100311.25;691755;28;58124;-63
2021/07/01 01:04:57;;;;;;;19.92;11.98;;;;;;;17.58;78.68;100327.41;694574;28;37911;-61
2021/07/01 01:05:18;;;;;;;18.30;12.07;;;;;;;17.56;78.69;100313.19;691857;28;44384;-62
2021/07/01 01:05:40;;;;;;;17.98;11.90;;;;;;;17.56;78.62;100315.09;692695;28;44483;-62
2021/07/01 01:06:02;;;;;;;18.55;12.30;;;;;;;17.56;78.66;100313.19;689608;28;46477;-63
2021/07/01 01:06:24;;;;;;;18.73;12.40;;;;;;;17.56;78.73;100320.53;689862;28;55480;-63
2021/07/01 01:06:48;;;;;;;20.35;12.60;;;;;;;17.56;78.76;100307.72;691815;28;47002;-62
2021/07/01 01:07:09;;;;;;;19.30;12.38;;;;;;;17.56;78.70;100312.34;693022;28;45242;-62
2021/07/01 01:07:30;;;;;;;17.83;12.38;;;;;;;17.58;78.76;100323.88;695130;28;45278;-62
2021/07/01 01:07:52;;;;;;;19.52;12.05;;;;;;;17.59;78.66;100320.06;692879;28;21673;-63
2021/07/01 01:08:14;;;;;;;19.60;11.82;;;;;;;17.56;78.82;100313.19;691997;28;21284;-63
2021/07/01 01:08:35;;;;;;;17.38;12.02;;;;;;;17.55;78.99;100319.69;689712;28;46500;-62
2021/07/01 01:08:57;;;;;;;17.42;12.40;;;;;;;17.54;78.73;100322.66;690653;28;46443;-63
2021/07/01 01:09:20;;;;;;;19.13;12.82;;;;;;;17.54;78.73;100315.31;690438;28;46344;-62
2021/07/01 01:09:42;;;;;;;18.45;11.88;;;;;;;17.54;78.77;100309.84;688958;28;46425;-63
2021/07/01 01:10:04;;;;;;;17.63;11.35;;;;;;;17.54;78.78;100309.00;692970;28;45253;-62
2021/07/01 01:10:27;;;;;;;18.85;12.27;;;;;;;17.54;78.81;100314.47;693723;28;93110;-62
2021/07/01 01:11:06;;;;;;;20.58;12.23;;;;;;;17.54;78.98;100315.31;688895;28;135973;-62
2021/07/01 01:11:36;;;;;;;18.13;11.77;;;;;;;17.56;79.02;100320.53;690448;28;137852;-63
2021/07/01 01:12:04;;;;;;;19.52;12.05;;;;;;;17.55;79.00;100313.41;691988;28;138175;-62
2021/07/01 01:12:26;;;;;;;18.83;12.10;;;;;;;17.53;78.88;100313.63;693128;28;70081;-62
2021/07/01 01:12:49;;;;;;;20.65;12.88;;;;;;;17.52;78.86;100313.88;691915;28;70388;-63
2021/07/01 01:13:23;;;;;;;18.52;12.23;;;;;;;17.51;78.91;100310.31;689966;28;115144;-62
2021/07/01 01:14:00;;;;;;;17.30;11.85;;;;;;;17.50;78.82;100311.38;686643;28;138410;-62
2021/07/01 01:14:28;;;;;;;18.58;12.48;;;;;;;17.51;79.02;100309.47;689341;28;137845;-63
2021/07/01 01:14:52;;;;;;;17.85;12.40;;;;;;;17.50;79.13;100313.28;692649;28;114442;-62
2021/07/01 01:15:13;;;;;;;16.75;11.90;;;;;;;17.49;78.91;100312.44;697703;28;23502;-62
2021/07/01 01:15:35;;;;;;;19.58;12.88;;;;;;;17.50;78.84;100310.56;694773;28;44368;-62
2021/07/01 01:15:59;;;;;;;19.05;12.38;;;;;;;17.49;79.03;100309.69;695845;28;23421;-62
2021/07/01 01:16:20;;;;;;;19.60;11.93;;;;;;;17.49;79.00;100309.69;690789;28;84615;-62
2021/07/01 01:16:42;;;;;;;18.33;12.18;;;;;;;17.50;79.02;100305.09;693149;28;23431;-63
2021/07/01 01:17:05;;;;;;;19.00;12.30;;;;;;;17.48;78.98;100308.88;691715;28;69463;-62
2021/07/01 01:17:27;;;;;;;19.20;11.80;;;;;;;17.48;79.05;100306.16;689772;28;88035;-62
2021/07/01 01:17:48;;;;;;;18.67;12.13;;;;;;;17.50;79.08;100310.56;693161;28;38305;-63
2021/07/01 01:18:11;;;;;;;18.27;12.18;;;;;;;17.51;79.18;100304.84;692321;28;69506;-62
2021/07/01 01:18:33;;;;;;;17.35;12.30;;;;;;;17.50;79.11;100307.81;695615;28;22473;-62
2021/07/01 01:18:56;;;;;;;17.90;12.00;;;;;;;17.51;79.04;100304.00;689078;28;69232;-62
2021/07/01 01:19:17;;;;;;;18.00;12.00;;;;;;;17.50;79.01;100305.91;691587;28;21545;-62
2021/07/01 01:19:38;;;;;;;20.58;12.73;;;;;;;17.51;78.99;100306.75;693153;28;22424;-63
2021/07/01 01:20:00;;;;;;;19.95;12.52;;;;;;;17.50;78.92;100311.38;693219;28;22502;-63
2021/07/01 01:20:21;;;;;;;20.83;13.00;;;;;;;17.51;78.93;100309.47;690014;28;69768;-62
2021/07/01 01:20:43;;;;;;;17.90;12.20;;;;;;;17.50;79.17;100305.91;694241;28;22416;-62
2021/07/01 01:21:09;;;;;;;19.08;11.60;;;;;;;17.50;79.05;100305.09;696255;28;22383;-62
2021/07/01 01:21:33;;;;;;;18.35;11.68;;;;;;;17.50;79.11;100302.38;689526;28;138109;-62
2021/07/01 01:21:55;;;;;;;18.25;11.60;;;;;;;17.50;79.04;100308.66;690841;28;69373;-62
2021/07/01 01:22:16;;;;;;;16.88;11.55;;;;;;;17.51;79.22;100314.94;691907;28;70221;-62
2021/07/01 01:22:42;;;;;;;16.85;11.82;;;;;;;17.51;79.13;100326.69;689148;28;115133;-62
2021/07/01 01:23:03;;;;;;;16.70;11.70;;;;;;;17.50;79.08;100303.19;693990;28;23511;-63
2021/07/01 01:23:26;;;;;;;16.88;11.35;;;;;;;17.50;79.23;100307.81;691569;28;44293;-63
2021/07/01 01:23:47;;;;;;;19.88;12.48;;;;;;;17.50;79.01;100319.56;693532;28;46368;-62
2021/07/01 01:24:08;;;;;;;20.13;12.40;;;;;;;17.49;78.94;100301.50;694734;28;23416;-63
2021/07/01 01:24:33;;;;;;;16.98;11.88;;;;;;;17.50;78.79;100303.19;694481;28;92296;-62
2021/07/01 01:24:55;;;;;;;17.38;12.00;;;;;;;17.51;78.85;100306.75;697824;28;46479;-63
2021/07/01 01:25:16;;;;;;;18.27;12.05;;;;;;;17.50;79.07;100300.47;698149;28;69495;-62
2021/07/01 01:25:38;;;;;;;18.73;11.77;;;;;;;17.50;79.10;100305.09;694757;28;69459;-64
2021/07/01 01:26:01;;;;;;;17.55;11.88;;;;;;;17.50;79.06;100299.63;693125;28;23471;-62
2021/07/01 01:26:35;;;;;;;20.02;12.05;;;;;;;17.51;79.03;100299.41;689861;28;137546;-62
2021/07/01 01:26:56;;;;;;;18.65;12.00;;;;;;;17.51;79.09;100296.66;692316;28;44510;-63
2021/07/01 01:27:18;;;;;;;19.48;12.02;;;;;;;17.50;79.07;100303.19;690717;28;22473;-63
2021/07/01 01:27:39;;;;;;;18.95;12.13;;;;;;;17.48;78.97;100300.69;692977;28;42159;-62
2021/07/01 01:28:00;;;;;;;19.40;11.93;;;;;;;17.50;79.00;100308.66;692821;28;21501;-62
2021/07/01 01:28:22;;;;;;;16.95;11.38;;;;;;;17.50;79.20;100305.09;693060;28;22480;-62
2021/07/01 01:28:46;;;;;;;16.67;10.80;;;;;;;17.50;79.20;100299.63;692351;28;38150;-63
2021/07/01 01:29:07;;;;;;;20.10;11.25;;;;;;;17.49;79.14;100298.78;694851;28;21421;-62
2021/07/01 01:29:28;;;;;;;19.52;11.43;;;;;;;17.48;79.26;100299.88;695704;28;14290;-62
2021/07/01 01:29:50;;;;;;;19.17;11.43;;;;;;;17.48;79.26;100302.59;696423;28;19377;-63
2021/07/01 01:30:14;;;;;;;18.90;11.30;;;;;;;17.49;79.29;100304.25;695543;28;46572;-62
2021/07/01 01:30:41;;;;;;;15.65;11.18;;;;;;;17.49;79.25;100301.50;693512;28;159179;-62
2021/07/01 01:31:02;;;;;;;17.10;11.73;;;;;;;17.49;79.15;100301.50;698528;28;47245;-62
2021/07/01 01:31:27;;;;;;;16.30;11.67;;;;;;;17.49;79.27;100301.50;696571;28;1114;-63
2021/07/01 01:31:50;;;;;;;17.20;11.40;;;;;;;17.50;79.20;100305.09;697040;28;38142;-62
2021/07/01 01:32:12;;;;;;;18.38;11.15;;;;;;;17.50;79.28;100308.66;694918;28;44377;-62
2021/07/01 01:32:33;;;;;;;17.50;11.45;;;;;;;17.50;79.30;100311.38;694260;28;4664;-62
2021/07/01 01:32:55;;;;;;;17.10;11.90;;;;;;;17.51;79.24;100298.53;694495;28;1111;-62
2021/07/01 01:33:18;;;;;;;17.67;11.73;;;;;;;17.52;79.12;100300.22;695305;28;1188;-62
2021/07/01 01:33:40;;;;;;;17.73;11.15;;;;;;;17.52;79.17;100301.03;692211;28;46347;-62
2021/07/01 01:34:01;;;;;;;16.52;11.50;;;;;;;17.51;79.24;100296.66;694226;28;22486;-62
2021/07/01 01:34:22;;;;;;;17.45;11.77;;;;;;;17.52;79.23;100305.69;696808;28;23423;-62
2021/07/01 01:34:43;;;;;;;17.60;12.10;;;;;;;17.51;79.21;100304.84;696110;28;16509;-63
2021/07/01 01:35:06;;;;;;;18.38;11.73;;;;;;;17.50;79.14;100303.19;689768;28;46233;-63
2021/07/01 01:35:27;;;;;;;19.85;11.07;;;;;;;17.51;79.31;100291.22;690994;28;44425;-62
2021/07/01 01:35:48;;;;;;;19.27;12.00;;;;;;;17.52;79.22;100300.22;695006;28;23471;-62
2021/07/01 01:36:10;;;;;;;19.27;11.82;;;;;;;17.53;79.46;100301.91;693718;28;47439;-62
2021/07/01 01:36:32;;;;;;;15.43;11.30;;;;;;;17.52;79.25;100298.31;693356;28;44355;-62
2021/07/01 01:36:56;;;;;;;15.98;11.60;;;;;;;17.53;79.19;100299.16;693821;28;46625;-62
2021/07/01 01:37:17;;;;;;;17.33;11.50;;;;;;;17.53;79.21;100301.91;693498;28;90228;-62
2021/07/01 01:37:38;;;;;;;18.55;11.88;;;;;;;17.53;79.12;100308.19;695426;28;22383;-63
2021/07/01 01:38:00;;;;;;;19.30;12.02;;;;;;;17.53;79.10;100304.63;696426;28;23457;-63
2021/07/01 01:38:22;;;;;;;15.57;11.37;;;;;;;17.53;79.29;100305.44;693561;28;44385;-62
2021/07/01 01:38:44;;;;;;;14.73;10.98;;;;;;;17.53;79.18;100305.44;692983;28;70234;-62
2021/07/01 01:39:20;;;;;;;17.60;11.07;;;;;;;17.52;79.11;100301.03;692134;28;137473;-62
2021/07/01 01:39:57;;;;;;;17.50;11.68;;;;;;;17.54;79.22;100307.13;689789;28;156232;-62
2021/07/01 01:40:19;;;;;;;19.83;11.90;;;;;;;17.53;79.07;100299.16;696311;28;69434;-62
2021/07/01 01:40:42;;;;;;;20.83;11.80;;;;;;;17.54;79.09;100303.53;698627;28;22507;-63
2021/07/01 01:41:03;;;;;;;19.50;12.20;;;;;;;17.54;79.12;100295.34;694326;28;69795;-63
2021/07/01 01:41:26;;;;;;;21.33;11.90;;;;;;;17.55;79.14;100308.78;693948;28;7358;-62
2021/07/01 01:41:48;;;;;;;20.30;12.00;;;;;;;17.55;79.14;100302.50;688695;28;70304;-62
2021/07/01 01:42:09;;;;;;;20.15;11.73;;;;;;;17.54;79.17;100304.41;689553;28;46322;-63
2021/07/01 01:42:32;;;;;;;18.55;11.88;;;;;;;17.54;78.99;100303.53;691166;28;43823;-62
2021/07/01 01:42:53;;;;;;;16.80;11.63;;;;;;;17.54;78.93;100304.41;693478;28;45288;-62
2021/07/01 01:43:16;;;;;;;17.85;11.50;;;;;;;17.54;79.05;100304.41;697269;28;22416;-63